Strona główna
METAR-TAF:

METAR-TAF

Lotnisko :

Port lotniczy Bahrajn

Bahrajn, Bahrajn

Szerokość geograficzna: 26-16N, Długość geograficzna: 050-39E, wysokość: 2 m

Aktualna obserwacja pogody

Raport powstał 28 minut temu, godzina 01:00 UTC
Wiatr 5 kt od zachód
Temperatura 34°C
Wilgotność 39%
Ciśnienie 1001 hPa
Widzialność 10 km lub więcej
Brak chmur poniżej 1500 m i brak chmur cumulonimbus

METAR: OBBI 040100Z 26005KT CAVOK 34/18 Q1001 NOSIG

czas: 04:28 (01:28 UTC)

Prognoza

Raport powstał 2 godziny i 28 minut temu, godzina 23:00 UTC
Prognoza ważna od 04 godzina 00 UTC do 05 godzina 06 UTC
Wiatr 8 kt od zachód
Widzialność: 9000 m
Stopniowe zmiany
od 04 godzina 09 UTC do 04 godzina 12 UTC
Wiatr 15 kt od północno-północny zachód w porywach dochodzący do 25 kt
Prawdopodobieństwo 30% :
Przejściowo
od 05 godzina 00 UTC do 05 godzina 06 UTC
Widzialność: 4000 m
pył

TAF: OBBI 032300Z 0400/0506 28008KT 9000 NSC BECMG 0409/0412 33015G25KT PROB30 TEMPO 0500/0506 4000 DU

Obserwacja i prognoza pogody dla ponad 4000 lotnisk (raport METAR i TAF).

Dostępne stacje oznaczono żółtymi i czerwonymi punktami na mapie.

Najedź kursorem aby zobaczyć nazwę stacji.

Kliknij aby zobaczyć obserwacje i prognozy pogody.

Aby zmienić mapę: kliknij na zielony przycisk z czarnym krzyżykiem, aby powiększyć; na zielony przycisk z myślnikiem, aby pomniejszyć; na zielone strzałki, aby przejść do map sąsiednich.


METAR-TAF: